Portada
METAR-TAF:

METAR-TAF

Aeropuertos :

Formosa, Argentina

Aeropuerto Internacional de Formosa

latitud: 26-12S, longitud: 058-14W, altitud: 59 m

Observación

El informe se hizo hace 57 minutos, a las 19:00 UTC
Viento 6 kt del sureste
Temperatura 27°C
Humedad 32%
Presión 1010 hPa
Visibilidad 10 km o más
sin nubes por debajo de 1500 m y sin presencia de cumulonimbus.

METAR: SARF 191900Z 14006KT CAVOK 27/09 Q1010

Hora: 16:57 (19:57 UTC)

Pronóstico

El informe se hizo hace 2 horas y 57 minutos, a las 17:00 UTC
Pronóstico válido del 19 a las 18 UTC al 20 a las 18 UTC
Viento 10 kt del este-sureste
Visibilidad 10 km o más
sin nubes por debajo de 1500 m y sin presencia de cumulonimbus.

TAF: SARF 191700Z 1918/2018 12010KT CAVOK TX32/2018Z TN12/2009Z

Observaciones y pronósticos meteorológicos de más de 4000 aeropuertos (mensajes METAR y TAF).

Los puntos amarillos y rojos representan las estaciones disponibles.

Ponga el ratón en el punto deseado para ver el nombre de la estación.

Haga clic para ver las observaciones y los pronósticos meteorológicos.

Para cambiar el mapa : haga clic en los botones verdes con una cruz de color negro para hacer un zoom, en el botón verde con un guión para alejar o en las flechas verdes para mapas adyacentes.


METAR-TAF: